sensor_id;sensor_type;location;lat;lon;timestamp;pressure;altitude;pressure_sealevel;temperature;humidity
78932;BME280;68331;53.362;55.932;2023-04-03T00:02:10;100393.38;;;6.09;46.25
78932;BME280;68331;53.362;55.932;2023-04-03T00:04:36;100394.28;;;6.08;46.07
78932;BME280;68331;53.362;55.932;2023-04-03T00:07:02;100388.16;;;6.09;46.38
78932;BME280;68331;53.362;55.932;2023-04-03T00:09:28;100389.91;;;6.10;46.05
78932;BME280;68331;53.362;55.932;2023-04-03T00:11:54;100384.66;;;6.09;46.29
78932;BME280;68331;53.362;55.932;2023-04-03T00:14:20;100383.81;;;6.07;46.23
78932;BME280;68331;53.362;55.932;2023-04-03T00:16:45;100385.59;;;6.01;46.28
78932;BME280;68331;53.362;55.932;2023-04-03T00:19:11;100380.31;;;6.03;46.24
78932;BME280;68331;53.362;55.932;2023-04-03T00:21:38;100375.09;;;6.03;46.35
78932;BME280;68331;53.362;55.932;2023-04-03T00:24:04;100379.47;;;6.04;46.37
78932;BME280;68331;53.362;55.932;2023-04-03T00:26:30;100375.03;;;6.12;45.77
78932;BME280;68331;53.362;55.932;2023-04-03T00:28:56;100374.13;;;6.22;45.33
78932;BME280;68331;53.362;55.932;2023-04-03T00:31:22;100364.53;;;6.20;45.73
78932;BME280;68331;53.362;55.932;2023-04-03T00:33:48;100374.13;;;6.22;45.47
78932;BME280;68331;53.362;55.932;2023-04-03T00:36:15;100368.00;;;6.26;45.07
78932;BME280;68331;53.362;55.932;2023-04-03T00:38:41;100367.94;;;6.31;44.98
78932;BME280;68331;53.362;55.932;2023-04-03T00:41:07;100364.47;;;6.31;45.10
78932;BME280;68331;53.362;55.932;2023-04-03T00:43:33;100365.34;;;6.29;44.99
78932;BME280;68331;53.362;55.932;2023-04-03T00:46:00;100363.59;;;6.28;44.88
78932;BME280;68331;53.362;55.932;2023-04-03T00:48:30;100363.56;;;6.32;44.39
78932;BME280;68331;53.362;55.932;2023-04-03T00:50:58;100366.16;;;6.39;44.19
78932;BME280;68331;53.362;55.932;2023-04-03T00:53:32;100371.41;;;6.39;44.05
78932;BME280;68331;53.362;55.932;2023-04-03T00:56:00;100362.69;;;6.36;44.11
78932;BME280;68331;53.362;55.932;2023-04-03T00:58:33;100363.59;;;6.30;44.23
78932;BME280;68331;53.362;55.932;2023-04-03T01:01:03;100367.94;;;6.34;44.04
78932;BME280;68331;53.362;55.932;2023-04-03T01:03:31;100365.28;;;6.37;43.93
78932;BME280;68331;53.362;55.932;2023-04-03T01:05:59;100374.06;;;6.33;44.28
78932;BME280;68331;53.362;55.932;2023-04-03T01:08:25;100367.97;;;6.29;44.10
78932;BME280;68331;53.362;55.932;2023-04-03T01:10:51;100374.97;;;6.27;44.06
78932;BME280;68331;53.362;55.932;2023-04-03T01:13:24;100361.03;;;6.22;44.29
78932;BME280;68331;53.362;55.932;2023-04-03T01:15:51;100355.88;;;6.05;44.57
78932;BME280;68331;53.362;55.932;2023-04-03T01:18:17;100366.38;;;6.04;44.65
78932;BME280;68331;53.362;55.932;2023-04-03T01:26:25;100364.66;;;5.91;44.79
78932;BME280;68331;53.362;55.932;2023-04-03T01:28:54;100365.53;;;5.83;45.07
78932;BME280;68331;53.362;55.932;2023-04-03T01:33:54;100367.34;;;5.69;45.63
78932;BME280;68331;53.362;55.932;2023-04-03T01:36:27;100361.25;;;5.61;45.56
78932;BME280;68331;53.362;55.932;2023-04-03T01:38:54;100367.41;;;5.55;45.86
78932;BME280;68331;53.362;55.932;2023-04-03T01:41:21;100366.53;;;5.53;46.05
78932;BME280;68331;53.362;55.932;2023-04-03T01:43:48;100364.78;;;5.57;45.83
78932;BME280;68331;53.362;55.932;2023-04-03T01:46:15;100366.50;;;5.66;45.49
78932;BME280;68331;53.362;55.932;2023-04-03T01:48:42;100361.25;;;5.72;45.50
78932;BME280;68331;53.362;55.932;2023-04-03T01:51:08;100355.94;;;5.82;44.91
78932;BME280;68331;53.362;55.932;2023-04-03T01:53:34;100365.53;;;5.96;44.52
78932;BME280;68331;53.362;55.932;2023-04-03T01:56:01;100364.63;;;6.01;44.56
78932;BME280;68331;53.362;55.932;2023-04-03T01:58:28;100364.59;;;6.08;44.38
78932;BME280;68331;53.362;55.932;2023-04-03T02:00:54;100367.22;;;6.06;44.40
78932;BME280;68331;53.362;55.932;2023-04-03T02:03:20;100368.09;;;6.05;44.29
78932;BME280;68331;53.362;55.932;2023-04-03T02:05:46;100361.09;;;6.09;44.32
78932;BME280;68331;53.362;55.932;2023-04-03T02:08:12;100369.78;;;6.17;44.21
78932;BME280;68331;53.362;55.932;2023-04-03T02:10:39;100354.03;;;6.23;43.85
78932;BME280;68331;53.362;55.932;2023-04-03T02:13:05;100347.94;;;6.21;43.76
78932;BME280;68331;53.362;55.932;2023-04-03T02:15:32;100361.88;;;6.27;43.96
78932;BME280;68331;53.362;55.932;2023-04-03T02:17:57;100357.47;;;6.33;43.55
78932;BME280;68331;53.362;55.932;2023-04-03T02:20:25;100360.06;;;6.36;43.71
78932;BME280;68331;53.362;55.932;2023-04-03T02:22:51;100357.44;;;6.39;43.40
78932;BME280;68331;53.362;55.932;2023-04-03T02:25:18;100366.13;;;6.44;43.41
78932;BME280;68331;53.362;55.932;2023-04-03T02:27:44;100367.88;;;6.48;43.43
78932;BME280;68331;53.362;55.932;2023-04-03T02:30:10;100361.72;;;6.50;43.52
78932;BME280;68331;53.362;55.932;2023-04-03T02:32:37;100356.34;;;6.69;43.03
78932;BME280;68331;53.362;55.932;2023-04-03T02:35:03;100366.06;;;7.53;41.19
78932;BME280;68331;53.362;55.932;2023-04-03T02:37:30;100363.13;;;8.46;39.38
78932;BME280;68331;53.362;55.932;2023-04-03T02:39:58;100360.06;;;9.26;37.76
78932;BME280;68331;53.362;55.932;2023-04-03T02:42:24;100356.41;;;9.33;37.27
78932;BME280;68331;53.362;55.932;2023-04-03T02:44:51;100362.91;;;9.14;37.60
78932;BME280;68331;53.362;55.932;2023-04-03T02:47:17;100359.03;;;9.31;36.88
78932;BME280;68331;53.362;55.932;2023-04-03T02:49:44;100359.63;;;9.47;36.90
78932;BME280;68331;53.362;55.932;2023-04-03T02:52:12;100359.44;;;9.57;36.73
78932;BME280;68331;53.362;55.932;2023-04-03T02:54:39;100357.59;;;10.05;36.27
78932;BME280;68331;53.362;55.932;2023-04-03T02:57:08;100356.16;;;9.89;36.13
78932;BME280;68331;53.362;55.932;2023-04-03T02:59:37;100358.94;;;9.38;37.01
78932;BME280;68331;53.362;55.932;2023-04-03T03:02:08;100358.69;;;9.51;37.01
78932;BME280;68331;53.362;55.932;2023-04-03T03:04:34;100354.97;;;9.62;36.77
78932;BME280;68331;53.362;55.932;2023-04-03T03:07:02;100356.56;;;9.70;36.95
78932;BME280;68331;53.362;55.932;2023-04-03T03:09:29;100359.78;;;9.41;37.65
78932;BME280;68331;53.362;55.932;2023-04-03T03:11:56;100364.88;;;8.99;38.58
78932;BME280;68331;53.362;55.932;2023-04-03T03:14:22;100369.00;;;8.63;39.35
78932;BME280;68331;53.362;55.932;2023-04-03T03:16:48;100367.41;;;8.53;39.58
78932;BME280;68331;53.362;55.932;2023-04-03T03:19:15;100365.28;;;8.76;39.08
78932;BME280;68331;53.362;55.932;2023-04-03T03:21:42;100362.25;;;9.47;37.56
78932;BME280;68331;53.362;55.932;2023-04-03T03:24:08;100362.34;;;9.89;36.53
78932;BME280;68331;53.362;55.932;2023-04-03T03:26:34;100360.06;;;9.69;36.39
78932;BME280;68331;53.362;55.932;2023-04-03T03:29:02;100355.91;;;9.59;36.71
78932;BME280;68331;53.362;55.932;2023-04-03T03:31:28;100356.41;;;9.78;36.71
78932;BME280;68331;53.362;55.932;2023-04-03T03:33:54;100352.97;;;10.55;34.81
78932;BME280;68331;53.362;55.932;2023-04-03T03:36:21;100364.25;;;10.62;34.05
78932;BME280;68331;53.362;55.932;2023-04-03T03:38:47;100353.72;;;10.21;35.11
78932;BME280;68331;53.362;55.932;2023-04-03T03:41:13;100348.22;;;10.32;35.17
78932;BME280;68331;53.362;55.932;2023-04-03T03:43:41;100344.56;;;11.11;33.94
78932;BME280;68331;53.362;55.932;2023-04-03T03:46:07;100346.53;;;12.29;31.22
78932;BME280;68331;53.362;55.932;2023-04-03T03:48:33;100352.50;;;12.90;30.03
78932;BME280;68331;53.362;55.932;2023-04-03T03:51:00;100354.66;;;12.51;30.45
78932;BME280;68331;53.362;55.932;2023-04-03T03:53:30;100346.59;;;11.98;31.38
78932;BME280;68331;53.362;55.932;2023-04-03T03:56:01;100359.13;;;12.49;30.75
78932;BME280;68331;53.362;55.932;2023-04-03T03:58:29;100348.50;;;13.55;28.90
78932;BME280;68331;53.362;55.932;2023-04-03T04:00:55;100330.72;;;15.16;26.70
78932;BME280;68331;53.362;55.932;2023-04-03T04:03:21;100339.84;;;16.47;24.56
78932;BME280;68331;53.362;55.932;2023-04-03T04:05:48;100338.91;;;17.19;24.11
78932;BME280;68331;53.362;55.932;2023-04-03T04:08:15;100335.25;;;18.69;22.17
78932;BME280;68331;53.362;55.932;2023-04-03T04:10:41;100335.53;;;18.64;21.62
78932;BME280;68331;53.362;55.932;2023-04-03T04:13:08;100328.59;;;16.59;23.08
78932;BME280;68331;53.362;55.932;2023-04-03T04:15:34;100346.97;;;14.65;25.21
78932;BME280;68331;53.362;55.932;2023-04-03T04:18:00;100353.59;;;14.77;25.22
78932;BME280;68331;53.362;55.932;2023-04-03T04:20:26;100349.66;;;15.49;24.40
78932;BME280;68331;53.362;55.932;2023-04-03T04:22:52;100334.22;;;16.70;23.47
78932;BME280;68331;53.362;55.932;2023-04-03T04:25:19;100338.72;;;18.71;21.39
78932;BME280;68331;53.362;55.932;2023-04-03T04:27:46;100341.41;;;19.76;19.83
78932;BME280;68331;53.362;55.932;2023-04-03T04:30:14;100336.69;;;19.50;19.13
78932;BME280;68331;53.362;55.932;2023-04-03T04:32:42;100342.78;;;18.30;20.34
78932;BME280;68331;53.362;55.932;2023-04-03T04:35:08;100344.75;;;18.27;20.60
78932;BME280;68331;53.362;55.932;2023-04-03T04:37:39;100339.38;;;20.22;18.69
78932;BME280;68331;53.362;55.932;2023-04-03T04:40:06;100333.06;;;20.92;17.67
78932;BME280;68331;53.362;55.932;2023-04-03T04:42:32;100335.38;;;20.15;17.95
78932;BME280;68331;53.362;55.932;2023-04-03T04:44:59;100342.00;;;18.76;18.86
78932;BME280;68331;53.362;55.932;2023-04-03T04:47:28;100347.88;;;17.01;20.90
78932;BME280;68331;53.362;55.932;2023-04-03T04:49:54;100356.16;;;16.01;22.32
78932;BME280;68331;53.362;55.932;2023-04-03T04:52:21;100352.41;;;15.87;22.58
78932;BME280;68331;53.362;55.932;2023-04-03T04:54:46;100344.97;;;17.05;21.14
78932;BME280;68331;53.362;55.932;2023-04-03T04:57:13;100348.56;;;17.89;19.98
78932;BME280;68331;53.362;55.932;2023-04-03T04:59:39;100338.22;;;19.10;18.73
78932;BME280;68331;53.362;55.932;2023-04-03T05:02:06;100341.84;;;20.39;17.57
78932;BME280;68331;53.362;55.932;2023-04-03T05:04:34;100337.50;;;21.18;16.52
78932;BME280;68331;53.362;55.932;2023-04-03T05:07:06;100336.19;;;21.89;16.10
78932;BME280;68331;53.362;55.932;2023-04-03T05:09:35;100329.22;;;21.35;16.37
78932;BME280;68331;53.362;55.932;2023-04-03T05:12:01;100347.84;;;20.43;17.01
78932;BME280;68331;53.362;55.932;2023-04-03T05:14:34;100342.34;;;19.16;18.09
78932;BME280;68331;53.362;55.932;2023-04-03T05:17:05;100343.47;;;17.52;19.93
78932;BME280;68331;53.362;55.932;2023-04-03T05:19:35;100339.81;;;17.87;19.55
78932;BME280;68331;53.362;55.932;2023-04-03T05:22:03;100336.13;;;17.73;19.77
78932;BME280;68331;53.362;55.932;2023-04-03T05:24:30;100333.41;;;17.57;19.49
78932;BME280;68331;53.362;55.932;2023-04-03T05:26:56;100331.97;;;17.67;19.57
78932;BME280;68331;53.362;55.932;2023-04-03T05:29:22;100328.78;;;18.89;18.75
78932;BME280;68331;53.362;55.932;2023-04-03T05:31:49;100326.34;;;20.72;16.54
78932;BME280;68331;53.362;55.932;2023-04-03T05:34:16;100327.75;;;22.32;14.55
78932;BME280;68331;53.362;55.932;2023-04-03T05:36:43;100333.16;;;22.56;14.55
78932;BME280;68331;53.362;55.932;2023-04-03T05:39:10;100321.25;;;22.47;14.63
78932;BME280;68331;53.362;55.932;2023-04-03T05:41:40;100333.94;;;21.05;15.35
78932;BME280;68331;53.362;55.932;2023-04-03T05:44:06;100331.63;;;19.60;16.50
78932;BME280;68331;53.362;55.932;2023-04-03T05:46:32;100335.78;;;19.36;16.81
78932;BME280;68331;53.362;55.932;2023-04-03T05:49:02;100330.78;;;20.03;16.46
78932;BME280;68331;53.362;55.932;2023-04-03T05:51:34;100313.38;;;20.51;14.97
78932;BME280;68331;53.362;55.932;2023-04-03T05:54:27;100326.13;;;19.92;15.44
78932;BME280;68331;53.362;55.932;2023-04-03T05:57:03;100317.22;;;19.77;15.54
78932;BME280;68331;53.362;55.932;2023-04-03T05:59:29;100307.19;;;21.56;14.38
78932;BME280;68331;53.362;55.932;2023-04-03T06:01:57;100307.16;;;22.92;13.66
78932;BME280;68331;53.362;55.932;2023-04-03T06:04:24;100300.59;;;22.96;13.25
78932;BME280;68331;53.362;55.932;2023-04-03T06:06:52;100297.72;;;22.38;13.90
78932;BME280;68331;53.362;55.932;2023-04-03T06:09:20;100295.59;;;23.03;13.39
78932;BME280;68331;53.362;55.932;2023-04-03T06:11:46;100303.81;;;23.59;12.27
78932;BME280;68331;53.362;55.932;2023-04-03T06:14:12;100289.69;;;24.34;12.14
78932;BME280;68331;53.362;55.932;2023-04-03T06:16:39;100287.16;;;26.31;10.98
78932;BME280;68331;53.362;55.932;2023-04-03T06:19:07;100282.22;;;28.35;9.32
78932;BME280;68331;53.362;55.932;2023-04-03T06:21:35;100282.63;;;29.04;8.86
78932;BME280;68331;53.362;55.932;2023-04-03T06:24:05;100279.34;;;28.82;8.94
78932;BME280;68331;53.362;55.932;2023-04-03T06:26:32;100279.03;;;28.22;9.10
78932;BME280;68331;53.362;55.932;2023-04-03T06:28:59;100273.25;;;27.32;9.33
78932;BME280;68331;53.362;55.932;2023-04-03T06:31:25;100283.56;;;27.56;9.42
78932;BME280;68331;53.362;55.932;2023-04-03T06:33:51;100277.00;;;28.69;8.88
78932;BME280;68331;53.362;55.932;2023-04-03T06:36:19;100280.38;;;29.25;8.33
78932;BME280;68331;53.362;55.932;2023-04-03T06:38:46;100272.66;;;29.38;7.98
78932;BME280;68331;53.362;55.932;2023-04-03T06:41:12;100264.22;;;30.77;7.06
78932;BME280;68331;53.362;55.932;2023-04-03T06:43:38;100277.88;;;32.60;6.71
78932;BME280;68331;53.362;55.932;2023-04-03T06:46:04;100271.09;;;33.99;5.89
78932;BME280;68331;53.362;55.932;2023-04-03T06:48:31;100266.91;;;34.91;5.35
78932;BME280;68331;53.362;55.932;2023-04-03T06:50:57;100278.34;;;35.23;4.79
78932;BME280;68331;53.362;55.932;2023-04-03T06:53:23;100269.66;;;34.69;4.63
78932;BME280;68331;53.362;55.932;2023-04-03T06:55:49;100265.78;;;35.35;4.58
78932;BME280;68331;53.362;55.932;2023-04-03T06:58:16;100268.78;;;35.12;4.46
78932;BME280;68331;53.362;55.932;2023-04-03T07:00:43;100272.78;;;32.57;5.36
78932;BME280;68331;53.362;55.932;2023-04-03T07:03:09;100272.56;;;31.24;5.88
78932;BME280;68331;53.362;55.932;2023-04-03T07:05:35;100262.84;;;30.06;6.23
78932;BME280;68331;53.362;55.932;2023-04-03T07:08:01;100265.28;;;29.57;6.72
78932;BME280;68331;53.362;55.932;2023-04-03T07:10:27;100258.41;;;29.44;6.73
78932;BME280;68331;53.362;55.932;2023-04-03T07:12:53;100260.75;;;27.96;7.20
78932;BME280;68331;53.362;55.932;2023-04-03T07:15:18;100259.91;;;25.72;8.68
78932;BME280;68331;53.362;55.932;2023-04-03T07:17:44;100257.44;;;24.76;9.72
78932;BME280;68331;53.362;55.932;2023-04-03T07:20:11;100258.94;;;23.24;10.15
78932;BME280;68331;53.362;55.932;2023-04-03T07:22:37;100260.75;;;21.92;11.36
78932;BME280;68331;53.362;55.932;2023-04-03T07:25:03;100256.88;;;20.81;12.44
78932;BME280;68331;53.362;55.932;2023-04-03T07:27:29;100269.25;;;20.15;12.77
78932;BME280;68331;53.362;55.932;2023-04-03T07:29:55;100263.66;;;19.63;13.33
78932;BME280;68331;53.362;55.932;2023-04-03T07:32:21;100262.56;;;18.78;13.68
78932;BME280;68331;53.362;55.932;2023-04-03T07:34:47;100265.59;;;18.10;14.61
78932;BME280;68331;53.362;55.932;2023-04-03T07:37:13;100255.06;;;17.91;14.96
78932;BME280;68331;53.362;55.932;2023-04-03T07:39:43;100259.56;;;17.91;15.00
78932;BME280;68331;53.362;55.932;2023-04-03T07:42:10;100253.59;;;18.01;14.61
78932;BME280;68331;53.362;55.932;2023-04-03T07:44:37;100235.78;;;18.02;14.88
78932;BME280;68331;53.362;55.932;2023-04-03T07:47:03;100257.28;;;18.30;14.72
78932;BME280;68331;53.362;55.932;2023-04-03T07:49:29;100257.44;;;18.43;14.75
78932;BME280;68331;53.362;55.932;2023-04-03T07:51:55;100252.94;;;18.59;14.79
78932;BME280;68331;53.362;55.932;2023-04-03T07:54:21;100248.09;;;18.66;14.67
78932;BME280;68331;53.362;55.932;2023-04-03T07:56:47;100255.75;;;18.42;14.55
78932;BME280;68331;53.362;55.932;2023-04-03T07:59:13;100248.72;;;18.09;14.54
78932;BME280;68331;53.362;55.932;2023-04-03T08:01:39;100240.59;;;17.95;14.82
78932;BME280;68331;53.362;55.932;2023-04-03T08:04:05;100232.34;;;18.00;14.79
78932;BME280;68331;53.362;55.932;2023-04-03T08:06:32;100249.63;;;17.93;14.85
78932;BME280;68331;53.362;55.932;2023-04-03T08:09:03;100242.25;;;17.98;14.80
78932;BME280;68331;53.362;55.932;2023-04-03T08:11:29;100235.31;;;18.41;14.53
78932;BME280;68331;53.362;55.932;2023-04-03T08:13:56;100238.63;;;18.61;14.36
78932;BME280;68331;53.362;55.932;2023-04-03T08:16:24;100247.78;;;18.41;13.96
78932;BME280;68331;53.362;55.932;2023-04-03T08:18:52;100234.13;;;18.15;14.01
78932;BME280;68331;53.362;55.932;2023-04-03T08:21:19;100237.31;;;18.22;14.18
78932;BME280;68331;53.362;55.932;2023-04-03T08:23:48;100240.78;;;18.08;14.36
78932;BME280;68331;53.362;55.932;2023-04-03T08:26:19;100228.03;;;17.97;14.02
78932;BME280;68331;53.362;55.932;2023-04-03T08:28:46;100248.53;;;17.97;14.12
78932;BME280;68331;53.362;55.932;2023-04-03T08:31:15;100245.44;;;17.88;14.00
78932;BME280;68331;53.362;55.932;2023-04-03T08:33:42;100239.47;;;17.83;14.10
78932;BME280;68331;53.362;55.932;2023-04-03T08:36:17;100251.09;;;17.98;14.36
78932;BME280;68331;53.362;55.932;2023-04-03T08:38:44;100238.78;;;18.11;14.35
78932;BME280;68331;53.362;55.932;2023-04-03T08:41:33;100234.63;;;18.22;14.26
78932;BME280;68331;53.362;55.932;2023-04-03T08:51:56;100228.13;;;18.57;13.46
78932;BME280;68331;53.362;55.932;2023-04-03T08:54:39;100226.13;;;18.61;13.57
78932;BME280;68331;53.362;55.932;2023-04-03T08:57:07;100236.25;;;18.86;13.77
78932;BME280;68331;53.362;55.932;2023-04-03T08:59:35;100235.13;;;18.90;13.42
78932;BME280;68331;53.362;55.932;2023-04-03T09:02:13;100222.72;;;18.89;13.36
78932;BME280;68331;53.362;55.932;2023-04-03T09:04:42;100242.28;;;18.90;13.42
78932;BME280;68331;53.362;55.932;2023-04-03T09:07:18;100233.69;;;18.69;13.48
78932;BME280;68331;53.362;55.932;2023-04-03T09:09:46;100225.34;;;18.75;13.46
78932;BME280;68331;53.362;55.932;2023-04-03T09:12:24;100220.97;;;18.88;13.75
78932;BME280;68331;53.362;55.932;2023-04-03T09:15:23;100232.75;;;19.14;13.42
78932;BME280;68331;53.362;55.932;2023-04-03T09:18:03;100220.28;;;19.43;13.17
78932;BME280;68331;53.362;55.932;2023-04-03T09:23:40;100215.78;;;19.44;12.98
78932;BME280;68331;53.362;55.932;2023-04-03T09:26:21;100219.38;;;19.43;13.07
78932;BME280;68331;53.362;55.932;2023-04-03T09:28:50;100212.25;;;19.43;13.00
78932;BME280;68331;53.362;55.932;2023-04-03T09:31:22;100213.09;;;19.44;12.58
78932;BME280;68331;53.362;55.932;2023-04-03T09:34:03;100222.38;;;19.67;12.71
78932;BME280;68331;53.362;55.932;2023-04-03T09:36:38;100198.63;;;19.89;12.38
78932;BME280;68331;53.362;55.932;2023-04-03T09:39:15;100216.25;;;20.06;11.73
78932;BME280;68331;53.362;55.932;2023-04-03T09:41:42;100207.56;;;19.76;11.65
78932;BME280;68331;53.362;55.932;2023-04-03T09:44:27;100209.19;;;19.64;11.58
78932;BME280;68331;53.362;55.932;2023-04-03T09:46:53;100210.72;;;19.68;11.17
78932;BME280;68331;53.362;55.932;2023-04-03T09:49:19;100214.81;;;19.59;11.21
78932;BME280;68331;53.362;55.932;2023-04-03T09:51:45;100215.19;;;19.82;11.87
78932;BME280;68331;53.362;55.932;2023-04-03T09:54:36;100207.13;;;19.96;12.13
78932;BME280;68331;53.362;55.932;2023-04-03T09:57:10;100209.72;;;19.97;12.00
78932;BME280;68331;53.362;55.932;2023-04-03T09:59:43;100212.91;;;20.17;11.94
78932;BME280;68331;53.362;55.932;2023-04-03T10:04:41;100206.38;;;20.21;12.10
78932;BME280;68331;53.362;55.932;2023-04-03T10:09:59;100220.47;;;20.10;12.21
78932;BME280;68331;53.362;55.932;2023-04-03T10:12:25;100224.81;;;19.98;12.30
78932;BME280;68331;53.362;55.932;2023-04-03T10:14:57;100209.66;;;19.85;12.20
78932;BME280;68331;53.362;55.932;2023-04-03T10:17:58;100233.94;;;19.67;12.33
78932;BME280;68331;53.362;55.932;2023-04-03T10:20:37;100232.78;;;19.43;12.61
78932;BME280;68331;53.362;55.932;2023-04-03T10:23:27;100235.06;;;19.35;12.90
78932;BME280;68331;53.362;55.932;2023-04-03T10:34:32;100253.59;;;19.09;12.76
78932;BME280;68331;53.362;55.932;2023-04-03T10:37:21;100244.16;;;19.18;12.28
78932;BME280;68331;53.362;55.932;2023-04-03T10:40:51;100253.50;;;19.25;12.04
78932;BME280;68331;53.362;55.932;2023-04-03T10:43:02;100250.88;;;18.95;11.95
78932;BME280;68331;53.362;55.932;2023-04-03T10:45:51;100260.91;;;18.45;12.76
78932;BME280;68331;53.362;55.932;2023-04-03T10:56:37;100258.66;;;18.38;12.57
78932;BME280;68331;53.362;55.932;2023-04-03T10:59:18;100251.34;;;18.41;12.67
78932;BME280;68331;53.362;55.932;2023-04-03T11:01:51;100263.56;;;18.45;13.19
78932;BME280;68331;53.362;55.932;2023-04-03T11:04:20;100255.06;;;18.39;12.99
78932;BME280;68331;53.362;55.932;2023-04-03T11:07:39;100244.13;;;18.27;13.41
78932;BME280;68331;53.362;55.932;2023-04-03T11:09:40;100247.91;;;18.23;13.09
78932;BME280;68331;53.362;55.932;2023-04-03T11:12:18;100246.09;;;18.40;13.51
78932;BME280;68331;53.362;55.932;2023-04-03T11:14:47;100251.69;;;18.51;13.61
78932;BME280;68331;53.362;55.932;2023-04-03T11:19:45;100249.69;;;18.54;13.92
78932;BME280;68331;53.362;55.932;2023-04-03T11:22:26;100245.22;;;18.39;14.37
78932;BME280;68331;53.362;55.932;2023-04-03T11:25:04;100252.31;;;18.08;14.40
78932;BME280;68331;53.362;55.932;2023-04-03T11:27:40;100255.47;;;17.83;14.39
78932;BME280;68331;53.362;55.932;2023-04-03T11:30:27;100249.25;;;17.67;14.68
78932;BME280;68331;53.362;55.932;2023-04-03T11:35:55;100267.22;;;17.63;14.73
78932;BME280;68331;53.362;55.932;2023-04-03T11:38:28;100257.75;;;17.58;14.73
78932;BME280;68331;53.362;55.932;2023-04-03T11:40:56;100255.66;;;17.80;14.45
78932;BME280;68331;53.362;55.932;2023-04-03T11:43:28;100251.09;;;17.98;13.63
78932;BME280;68331;53.362;55.932;2023-04-03T11:46:02;100261.78;;;18.14;13.81
78932;BME280;68331;53.362;55.932;2023-04-03T11:50:58;100260.56;;;18.51;14.09
78932;BME280;68331;53.362;55.932;2023-04-03T11:53:35;100262.75;;;18.75;13.79
78932;BME280;68331;53.362;55.932;2023-04-03T11:56:26;100264.78;;;18.86;14.11
78932;BME280;68331;53.362;55.932;2023-04-03T11:59:22;100265.56;;;18.72;14.25
78932;BME280;68331;53.362;55.932;2023-04-03T12:04:21;100264.94;;;18.52;13.58
78932;BME280;68331;53.362;55.932;2023-04-03T12:09:31;100277.91;;;18.12;14.52
78932;BME280;68331;53.362;55.932;2023-04-03T12:12:00;100271.28;;;17.71;14.66
78932;BME280;68331;53.362;55.932;2023-04-03T12:14:27;100274.66;;;17.41;14.97
78932;BME280;68331;53.362;55.932;2023-04-03T12:16:55;100266.44;;;17.28;15.30
78932;BME280;68331;53.362;55.932;2023-04-03T12:24:40;100281.00;;;17.38;15.46
78932;BME280;68331;53.362;55.932;2023-04-03T12:27:16;100261.88;;;17.63;15.41
78932;BME280;68331;53.362;55.932;2023-04-03T12:29:51;100264.91;;;17.73;15.67
78932;BME280;68331;53.362;55.932;2023-04-03T12:38:16;100269.91;;;17.63;14.43
78932;BME280;68331;53.362;55.932;2023-04-03T12:40:52;100279.31;;;17.37;14.71
78932;BME280;68331;53.362;55.932;2023-04-03T12:48:53;100287.50;;;16.82;16.28
78932;BME280;68331;53.362;55.932;2023-04-03T12:54:04;100283.22;;;16.61;16.83
78932;BME280;68331;53.362;55.932;2023-04-03T12:56:38;100287.84;;;16.57;16.98
78932;BME280;68331;53.362;55.932;2023-04-03T12:59:20;100280.19;;;16.49;17.41
78932;BME280;68331;53.362;55.932;2023-04-03T13:01:57;100289.78;;;16.54;17.63
78932;BME280;68331;53.362;55.932;2023-04-03T13:04:24;100282.72;;;16.52;17.81
78932;BME280;68331;53.362;55.932;2023-04-03T13:06:51;100288.38;;;16.46;18.29
78932;BME280;68331;53.362;55.932;2023-04-03T13:09:25;100284.47;;;16.54;18.18
78932;BME280;68331;53.362;55.932;2023-04-03T13:12:18;100283.75;;;16.50;18.13
78932;BME280;68331;53.362;55.932;2023-04-03T13:14:58;100293.25;;;16.37;18.65
78932;BME280;68331;53.362;55.932;2023-04-03T13:17:25;100282.41;;;16.41;18.85
78932;BME280;68331;53.362;55.932;2023-04-03T13:19:51;100287.44;;;16.47;18.63
78932;BME280;68331;53.362;55.932;2023-04-03T13:24:58;100286.56;;;16.47;18.56
78932;BME280;68331;53.362;55.932;2023-04-03T13:27:26;100286.72;;;16.44;18.33
78932;BME280;68331;53.362;55.932;2023-04-03T13:29:54;100281.03;;;16.33;18.14
78932;BME280;68331;53.362;55.932;2023-04-03T13:32:25;100298.75;;;16.34;18.01
78932;BME280;68331;53.362;55.932;2023-04-03T13:34:52;100297.53;;;16.22;18.25
78932;BME280;68331;53.362;55.932;2023-04-03T13:37:23;100294.47;;;16.12;18.06
78932;BME280;68331;53.362;55.932;2023-04-03T13:42:37;100297.16;;;16.11;18.64
78932;BME280;68331;53.362;55.932;2023-04-03T13:45:26;100291.84;;;16.11;18.78
78932;BME280;68331;53.362;55.932;2023-04-03T13:48:20;100296.25;;;15.93;19.16
78932;BME280;68331;53.362;55.932;2023-04-03T13:51:02;100310.25;;;15.77;19.13
78932;BME280;68331;53.362;55.932;2023-04-03T13:53:31;100300.78;;;15.51;19.27
78932;BME280;68331;53.362;55.932;2023-04-03T13:58:31;100310.91;;;15.23;19.63
78932;BME280;68331;53.362;55.932;2023-04-03T14:03:51;100294.56;;;14.91;19.77
78932;BME280;68331;53.362;55.932;2023-04-03T14:06:18;100300.38;;;14.79;20.17
78932;BME280;68331;53.362;55.932;2023-04-03T14:08:45;100296.63;;;14.62;20.48
78932;BME280;68331;53.362;55.932;2023-04-03T14:11:21;100298.00;;;14.51;20.32
78932;BME280;68331;53.362;55.932;2023-04-03T14:13:50;100296.63;;;14.40;20.91
78932;BME280;68331;53.362;55.932;2023-04-03T14:16:26;100306.53;;;14.35;20.80
78932;BME280;68331;53.362;55.932;2023-04-03T14:18:54;100303.28;;;14.29;21.28
78932;BME280;68331;53.362;55.932;2023-04-03T14:21:20;100303.63;;;14.19;21.80